sensor_id;sensor_type;location;lat;lon;timestamp;temperature;humidity
20141;DHT22;10231;47.702;9.826;2022-08-25T00:01:10;17.40;99.90
20141;DHT22;10231;47.702;9.826;2022-08-25T00:03:39;17.40;99.90
20141;DHT22;10231;47.702;9.826;2022-08-25T00:06:05;17.30;99.90
20141;DHT22;10231;47.702;9.826;2022-08-25T00:08:31;17.20;99.90
20141;DHT22;10231;47.702;9.826;2022-08-25T00:11:00;17.20;99.90
20141;DHT22;10231;47.702;9.826;2022-08-25T00:13:26;17.20;99.90
20141;DHT22;10231;47.702;9.826;2022-08-25T00:15:52;17.20;99.90
20141;DHT22;10231;47.702;9.826;2022-08-25T00:18:18;17.20;99.90
20141;DHT22;10231;47.702;9.826;2022-08-25T00:20:43;17.10;99.90
20141;DHT22;10231;47.702;9.826;2022-08-25T00:23:09;17.10;99.90
20141;DHT22;10231;47.702;9.826;2022-08-25T00:25:35;17.10;99.90
20141;DHT22;10231;47.702;9.826;2022-08-25T00:28:00;17.10;99.90
20141;DHT22;10231;47.702;9.826;2022-08-25T00:30:26;17.10;99.90
20141;DHT22;10231;47.702;9.826;2022-08-25T00:32:51;17.10;99.90
20141;DHT22;10231;47.702;9.826;2022-08-25T00:35:17;17.10;99.90
20141;DHT22;10231;47.702;9.826;2022-08-25T00:37:43;17.10;99.90
20141;DHT22;10231;47.702;9.826;2022-08-25T00:40:09;17.10;99.90
20141;DHT22;10231;47.702;9.826;2022-08-25T00:42:35;17.10;99.90
20141;DHT22;10231;47.702;9.826;2022-08-25T00:45:03;17.20;99.90
20141;DHT22;10231;47.702;9.826;2022-08-25T00:47:30;17.20;99.90
20141;DHT22;10231;47.702;9.826;2022-08-25T00:49:58;17.20;99.90
20141;DHT22;10231;47.702;9.826;2022-08-25T00:52:32;17.20;99.90
20141;DHT22;10231;47.702;9.826;2022-08-25T00:55:02;17.20;99.90
20141;DHT22;10231;47.702;9.826;2022-08-25T00:57:35;17.10;99.90
20141;DHT22;10231;47.702;9.826;2022-08-25T01:00:55;17.10;99.90
20141;DHT22;10231;47.702;9.826;2022-08-25T01:03:15;17.20;99.90
20141;DHT22;10231;47.702;9.826;2022-08-25T01:05:42;17.10;99.90
20141;DHT22;10231;47.702;9.826;2022-08-25T01:08:08;17.10;99.90
20141;DHT22;10231;47.702;9.826;2022-08-25T01:10:37;17.10;99.90
20141;DHT22;10231;47.702;9.826;2022-08-25T01:15:39;17.00;99.90
20141;DHT22;10231;47.702;9.826;2022-08-25T01:18:06;17.00;99.90
20141;DHT22;10231;47.702;9.826;2022-08-25T01:20:32;16.90;99.90
20141;DHT22;10231;47.702;9.826;2022-08-25T01:22:59;16.80;99.90
20141;DHT22;10231;47.702;9.826;2022-08-25T01:25:49;16.80;99.90
20141;DHT22;10231;47.702;9.826;2022-08-25T01:28:17;16.80;99.90
20141;DHT22;10231;47.702;9.826;2022-08-25T01:30:42;16.80;99.90
20141;DHT22;10231;47.702;9.826;2022-08-25T01:39:52;16.80;99.90
20141;DHT22;10231;47.702;9.826;2022-08-25T01:42:53;16.80;99.90
20141;DHT22;10231;47.702;9.826;2022-08-25T01:45:22;16.60;99.90
20141;DHT22;10231;47.702;9.826;2022-08-25T01:47:47;16.60;99.90
20141;DHT22;10231;47.702;9.826;2022-08-25T01:50:13;16.50;99.90
20141;DHT22;10231;47.702;9.826;2022-08-25T01:52:59;16.60;99.90
20141;DHT22;10231;47.702;9.826;2022-08-25T01:55:25;16.50;99.90
20141;DHT22;10231;47.702;9.826;2022-08-25T01:57:50;16.50;99.90
20141;DHT22;10231;47.702;9.826;2022-08-25T02:00:17;16.50;99.90
20141;DHT22;10231;47.702;9.826;2022-08-25T02:02:43;16.50;99.90
20141;DHT22;10231;47.702;9.826;2022-08-25T02:05:10;16.50;99.90
20141;DHT22;10231;47.702;9.826;2022-08-25T02:07:36;16.50;99.90
20141;DHT22;10231;47.702;9.826;2022-08-25T02:10:05;16.50;99.90
20141;DHT22;10231;47.702;9.826;2022-08-25T02:12:31;16.40;99.90
20141;DHT22;10231;47.702;9.826;2022-08-25T02:14:59;16.30;99.90
20141;DHT22;10231;47.702;9.826;2022-08-25T02:17:26;16.30;99.90
20141;DHT22;10231;47.702;9.826;2022-08-25T02:19:52;16.20;99.90
20141;DHT22;10231;47.702;9.826;2022-08-25T02:22:19;16.20;99.90
20141;DHT22;10231;47.702;9.826;2022-08-25T02:24:45;16.10;99.90
20141;DHT22;10231;47.702;9.826;2022-08-25T02:27:11;16.10;99.90
20141;DHT22;10231;47.702;9.826;2022-08-25T02:29:36;16.00;99.90
20141;DHT22;10231;47.702;9.826;2022-08-25T02:32:02;16.00;99.90
20141;DHT22;10231;47.702;9.826;2022-08-25T02:34:28;15.90;99.90
20141;DHT22;10231;47.702;9.826;2022-08-25T02:36:53;15.90;99.90
20141;DHT22;10231;47.702;9.826;2022-08-25T02:39:19;15.90;99.90
20141;DHT22;10231;47.702;9.826;2022-08-25T02:41:44;15.90;99.90
20141;DHT22;10231;47.702;9.826;2022-08-25T02:44:10;16.00;99.90
20141;DHT22;10231;47.702;9.826;2022-08-25T02:46:36;16.00;99.90
20141;DHT22;10231;47.702;9.826;2022-08-25T02:49:02;16.00;99.90
20141;DHT22;10231;47.702;9.826;2022-08-25T02:51:29;16.00;99.90
20141;DHT22;10231;47.702;9.826;2022-08-25T02:53:58;16.00;99.90
20141;DHT22;10231;47.702;9.826;2022-08-25T02:56:27;16.00;99.90
20141;DHT22;10231;47.702;9.826;2022-08-25T02:58:52;15.90;99.90
20141;DHT22;10231;47.702;9.826;2022-08-25T03:01:18;15.90;99.90
20141;DHT22;10231;47.702;9.826;2022-08-25T03:03:45;15.80;99.90
20141;DHT22;10231;47.702;9.826;2022-08-25T03:06:13;15.90;99.90
20141;DHT22;10231;47.702;9.826;2022-08-25T03:08:39;15.90;99.90
20141;DHT22;10231;47.702;9.826;2022-08-25T03:11:06;15.90;99.90
20141;DHT22;10231;47.702;9.826;2022-08-25T03:13:32;16.00;99.90
20141;DHT22;10231;47.702;9.826;2022-08-25T03:16:02;16.00;99.90
20141;DHT22;10231;47.702;9.826;2022-08-25T03:18:28;16.00;99.90
20141;DHT22;10231;47.702;9.826;2022-08-25T03:20:53;15.90;99.90
20141;DHT22;10231;47.702;9.826;2022-08-25T03:23:19;15.90;99.90
20141;DHT22;10231;47.702;9.826;2022-08-25T03:25:45;15.90;99.90
20141;DHT22;10231;47.702;9.826;2022-08-25T03:28:29;15.90;99.90
20141;DHT22;10231;47.702;9.826;2022-08-25T03:31:00;15.80;99.90
20141;DHT22;10231;47.702;9.826;2022-08-25T03:33:28;15.90;99.90
20141;DHT22;10231;47.702;9.826;2022-08-25T03:35:53;15.80;99.90
20141;DHT22;10231;47.702;9.826;2022-08-25T03:38:20;15.70;99.90
20141;DHT22;10231;47.702;9.826;2022-08-25T03:40:45;15.70;99.90
20141;DHT22;10231;47.702;9.826;2022-08-25T03:43:11;15.70;99.90
20141;DHT22;10231;47.702;9.826;2022-08-25T03:45:41;15.60;99.90
20141;DHT22;10231;47.702;9.826;2022-08-25T03:48:07;15.50;99.90
20141;DHT22;10231;47.702;9.826;2022-08-25T03:50:33;15.50;99.90
20141;DHT22;10231;47.702;9.826;2022-08-25T03:52:59;15.50;99.90
20141;DHT22;10231;47.702;9.826;2022-08-25T03:55:25;15.50;99.90
20141;DHT22;10231;47.702;9.826;2022-08-25T03:57:52;15.50;99.90
20141;DHT22;10231;47.702;9.826;2022-08-25T04:00:19;15.50;99.90
20141;DHT22;10231;47.702;9.826;2022-08-25T04:02:45;15.40;99.90
20141;DHT22;10231;47.702;9.826;2022-08-25T04:05:11;15.50;99.90
20141;DHT22;10231;47.702;9.826;2022-08-25T04:07:37;15.50;99.90
20141;DHT22;10231;47.702;9.826;2022-08-25T04:10:04;15.50;99.90
20141;DHT22;10231;47.702;9.826;2022-08-25T04:12:30;15.50;99.90
20141;DHT22;10231;47.702;9.826;2022-08-25T04:14:56;15.40;99.90
20141;DHT22;10231;47.702;9.826;2022-08-25T04:17:21;15.40;99.90
20141;DHT22;10231;47.702;9.826;2022-08-25T04:19:47;15.40;99.90
20141;DHT22;10231;47.702;9.826;2022-08-25T04:22:12;15.30;99.90
20141;DHT22;10231;47.702;9.826;2022-08-25T04:24:38;15.20;99.90
20141;DHT22;10231;47.702;9.826;2022-08-25T04:27:04;15.30;99.90
20141;DHT22;10231;47.702;9.826;2022-08-25T04:29:29;15.30;99.90
20141;DHT22;10231;47.702;9.826;2022-08-25T04:31:55;15.20;99.90
20141;DHT22;10231;47.702;9.826;2022-08-25T04:34:22;15.20;99.90
20141;DHT22;10231;47.702;9.826;2022-08-25T04:36:48;15.10;99.90
20141;DHT22;10231;47.702;9.826;2022-08-25T04:39:17;15.20;99.90
20141;DHT22;10231;47.702;9.826;2022-08-25T04:41:48;15.20;99.90
20141;DHT22;10231;47.702;9.826;2022-08-25T04:44:14;15.20;99.90
20141;DHT22;10231;47.702;9.826;2022-08-25T04:46:40;15.10;99.90
20141;DHT22;10231;47.702;9.826;2022-08-25T04:49:06;15.20;99.90
20141;DHT22;10231;47.702;9.826;2022-08-25T04:51:35;15.30;99.90
20141;DHT22;10231;47.702;9.826;2022-08-25T04:54:04;15.30;99.90
20141;DHT22;10231;47.702;9.826;2022-08-25T04:56:31;15.20;99.90
20141;DHT22;10231;47.702;9.826;2022-08-25T04:59:04;15.20;99.90
20141;DHT22;10231;47.702;9.826;2022-08-25T05:01:30;15.20;99.90
20141;DHT22;10231;47.702;9.826;2022-08-25T05:03:59;15.30;99.90
20141;DHT22;10231;47.702;9.826;2022-08-25T05:06:25;15.30;99.90
20141;DHT22;10231;47.702;9.826;2022-08-25T05:08:52;15.30;99.90
20141;DHT22;10231;47.702;9.826;2022-08-25T05:11:18;15.30;99.90
20141;DHT22;10231;47.702;9.826;2022-08-25T05:13:45;15.20;99.90
20141;DHT22;10231;47.702;9.826;2022-08-25T05:16:11;15.20;99.90
20141;DHT22;10231;47.702;9.826;2022-08-25T05:18:37;15.30;99.90
20141;DHT22;10231;47.702;9.826;2022-08-25T05:21:09;15.30;99.90
20141;DHT22;10231;47.702;9.826;2022-08-25T05:23:36;15.30;99.90
20141;DHT22;10231;47.702;9.826;2022-08-25T05:26:08;15.40;99.90
20141;DHT22;10231;47.702;9.826;2022-08-25T05:28:35;15.40;99.90
20141;DHT22;10231;47.702;9.826;2022-08-25T05:31:02;15.40;99.90
20141;DHT22;10231;47.702;9.826;2022-08-25T05:33:27;15.40;99.90
20141;DHT22;10231;47.702;9.826;2022-08-25T05:35:53;15.50;99.90
20141;DHT22;10231;47.702;9.826;2022-08-25T05:38:20;15.50;99.90
20141;DHT22;10231;47.702;9.826;2022-08-25T05:40:45;15.60;99.90
20141;DHT22;10231;47.702;9.826;2022-08-25T05:43:11;15.60;99.90
20141;DHT22;10231;47.702;9.826;2022-08-25T05:45:39;15.60;99.90
20141;DHT22;10231;47.702;9.826;2022-08-25T05:48:05;15.60;99.90
20141;DHT22;10231;47.702;9.826;2022-08-25T05:50:30;15.70;99.90
20141;DHT22;10231;47.702;9.826;2022-08-25T05:52:56;15.60;99.90
20141;DHT22;10231;47.702;9.826;2022-08-25T05:55:22;15.70;99.90
20141;DHT22;10231;47.702;9.826;2022-08-25T05:57:47;15.70;99.90
20141;DHT22;10231;47.702;9.826;2022-08-25T06:00:13;15.80;99.90
20141;DHT22;10231;47.702;9.826;2022-08-25T06:02:40;15.90;99.90
20141;DHT22;10231;47.702;9.826;2022-08-25T06:05:07;15.90;99.90
20141;DHT22;10231;47.702;9.826;2022-08-25T06:07:32;16.00;99.90
20141;DHT22;10231;47.702;9.826;2022-08-25T06:10:01;16.10;99.90
20141;DHT22;10231;47.702;9.826;2022-08-25T06:12:27;16.10;99.90
20141;DHT22;10231;47.702;9.826;2022-08-25T06:14:53;16.00;99.90
20141;DHT22;10231;47.702;9.826;2022-08-25T06:17:18;16.10;99.90
20141;DHT22;10231;47.702;9.826;2022-08-25T06:19:44;16.10;99.90
20141;DHT22;10231;47.702;9.826;2022-08-25T06:22:09;16.20;99.90
20141;DHT22;10231;47.702;9.826;2022-08-25T06:24:35;16.30;99.90
20141;DHT22;10231;47.702;9.826;2022-08-25T06:27:00;16.40;99.90
20141;DHT22;10231;47.702;9.826;2022-08-25T06:29:26;16.40;99.90
20141;DHT22;10231;47.702;9.826;2022-08-25T06:31:51;16.50;99.90
20141;DHT22;10231;47.702;9.826;2022-08-25T06:34:17;16.50;99.90
20141;DHT22;10231;47.702;9.826;2022-08-25T06:36:43;16.60;99.90
20141;DHT22;10231;47.702;9.826;2022-08-25T06:39:09;16.60;99.90
20141;DHT22;10231;47.702;9.826;2022-08-25T06:41:35;16.70;99.90
20141;DHT22;10231;47.702;9.826;2022-08-25T06:44:00;16.80;99.90
20141;DHT22;10231;47.702;9.826;2022-08-25T06:46:27;16.80;99.90
20141;DHT22;10231;47.702;9.826;2022-08-25T06:48:54;16.90;99.90
20141;DHT22;10231;47.702;9.826;2022-08-25T06:51:21;16.90;99.90
20141;DHT22;10231;47.702;9.826;2022-08-25T06:53:48;17.00;99.90
20141;DHT22;10231;47.702;9.826;2022-08-25T06:56:15;17.10;99.90
20141;DHT22;10231;47.702;9.826;2022-08-25T06:58:41;17.10;99.90
20141;DHT22;10231;47.702;9.826;2022-08-25T07:01:21;17.20;99.90
20141;DHT22;10231;47.702;9.826;2022-08-25T07:03:49;17.30;99.90
20141;DHT22;10231;47.702;9.826;2022-08-25T07:06:15;17.30;99.90
20141;DHT22;10231;47.702;9.826;2022-08-25T07:08:43;17.30;99.90
20141;DHT22;10231;47.702;9.826;2022-08-25T07:11:10;17.40;99.90
20141;DHT22;10231;47.702;9.826;2022-08-25T07:13:37;17.40;99.90
20141;DHT22;10231;47.702;9.826;2022-08-25T07:16:03;17.50;99.90
20141;DHT22;10231;47.702;9.826;2022-08-25T07:18:29;17.50;99.90
20141;DHT22;10231;47.702;9.826;2022-08-25T07:20:55;17.60;99.90
20141;DHT22;10231;47.702;9.826;2022-08-25T07:23:22;17.60;99.90
20141;DHT22;10231;47.702;9.826;2022-08-25T07:25:48;17.60;99.90
20141;DHT22;10231;47.702;9.826;2022-08-25T07:28:15;17.70;99.90
20141;DHT22;10231;47.702;9.826;2022-08-25T07:30:41;17.80;99.90
20141;DHT22;10231;47.702;9.826;2022-08-25T07:33:06;17.90;99.90
20141;DHT22;10231;47.702;9.826;2022-08-25T07:35:32;17.90;99.90
20141;DHT22;10231;47.702;9.826;2022-08-25T07:37:58;17.90;99.90
20141;DHT22;10231;47.702;9.826;2022-08-25T07:40:30;18.00;99.90
20141;DHT22;10231;47.702;9.826;2022-08-25T07:42:58;18.10;99.90
20141;DHT22;10231;47.702;9.826;2022-08-25T07:45:26;18.10;99.90
20141;DHT22;10231;47.702;9.826;2022-08-25T07:47:57;18.20;99.90
20141;DHT22;10231;47.702;9.826;2022-08-25T07:50:24;18.20;99.90
20141;DHT22;10231;47.702;9.826;2022-08-25T07:52:50;18.30;99.90
20141;DHT22;10231;47.702;9.826;2022-08-25T07:55:16;18.30;99.90
20141;DHT22;10231;47.702;9.826;2022-08-25T07:57:41;18.40;99.90
20141;DHT22;10231;47.702;9.826;2022-08-25T08:00:09;18.50;99.90
20141;DHT22;10231;47.702;9.826;2022-08-25T08:02:37;18.50;99.90
20141;DHT22;10231;47.702;9.826;2022-08-25T08:05:03;18.50;99.90
20141;DHT22;10231;47.702;9.826;2022-08-25T08:07:29;18.60;99.90
20141;DHT22;10231;47.702;9.826;2022-08-25T08:09:56;18.60;99.90
20141;DHT22;10231;47.702;9.826;2022-08-25T08:12:22;18.70;99.90
20141;DHT22;10231;47.702;9.826;2022-08-25T08:14:48;18.80;99.90
20141;DHT22;10231;47.702;9.826;2022-08-25T08:17:14;18.80;99.90
20141;DHT22;10231;47.702;9.826;2022-08-25T08:19:40;18.80;99.90
20141;DHT22;10231;47.702;9.826;2022-08-25T08:22:06;18.90;99.90
20141;DHT22;10231;47.702;9.826;2022-08-25T08:24:32;18.90;99.90
20141;DHT22;10231;47.702;9.826;2022-08-25T08:27:04;19.00;99.90
20141;DHT22;10231;47.702;9.826;2022-08-25T08:29:30;19.10;99.90
20141;DHT22;10231;47.702;9.826;2022-08-25T08:31:56;19.10;99.90
20141;DHT22;10231;47.702;9.826;2022-08-25T08:34:22;19.10;99.90
20141;DHT22;10231;47.702;9.826;2022-08-25T08:36:48;19.10;99.90
20141;DHT22;10231;47.702;9.826;2022-08-25T08:39:13;19.10;99.90
20141;DHT22;10231;47.702;9.826;2022-08-25T08:47:36;19.30;99.90
20141;DHT22;10231;47.702;9.826;2022-08-25T08:50:29;19.40;99.90
20141;DHT22;10231;47.702;9.826;2022-08-25T08:55:46;19.40;99.90
20141;DHT22;10231;47.702;9.826;2022-08-25T08:58:26;19.50;99.90
20141;DHT22;10231;47.702;9.826;2022-08-25T09:00:55;19.70;99.90
20141;DHT22;10231;47.702;9.826;2022-08-25T09:03:32;19.80;99.90
20141;DHT22;10231;47.702;9.826;2022-08-25T09:06:01;19.80;99.90
20141;DHT22;10231;47.702;9.826;2022-08-25T09:08:27;19.80;99.90
20141;DHT22;10231;47.702;9.826;2022-08-25T09:19:23;19.90;99.90
20141;DHT22;10231;47.702;9.826;2022-08-25T09:22:05;20.00;99.90
20141;DHT22;10231;47.702;9.826;2022-08-25T09:27:56;20.00;99.90
20141;DHT22;10231;47.702;9.826;2022-08-25T09:30:31;20.10;99.90
20141;DHT22;10231;47.702;9.826;2022-08-25T09:32:59;20.20;99.90
20141;DHT22;10231;47.702;9.826;2022-08-25T09:35:32;20.30;99.90
20141;DHT22;10231;47.702;9.826;2022-08-25T09:38:00;20.50;99.90
20141;DHT22;10231;47.702;9.826;2022-08-25T09:40:29;20.50;99.90
20141;DHT22;10231;47.702;9.826;2022-08-25T09:42:58;20.50;99.90
20141;DHT22;10231;47.702;9.826;2022-08-25T09:45:41;20.50;99.90
20141;DHT22;10231;47.702;9.826;2022-08-25T09:48:28;20.60;99.90
20141;DHT22;10231;47.702;9.826;2022-08-25T09:50:59;20.60;99.90
20141;DHT22;10231;47.702;9.826;2022-08-25T09:53:26;20.60;99.90
20141;DHT22;10231;47.702;9.826;2022-08-25T09:55:59;20.70;99.90
20141;DHT22;10231;47.702;9.826;2022-08-25T09:58:29;20.70;99.90
20141;DHT22;10231;47.702;9.826;2022-08-25T10:01:11;20.80;99.90
20141;DHT22;10231;47.702;9.826;2022-08-25T10:03:53;20.90;99.90
20141;DHT22;10231;47.702;9.826;2022-08-25T10:06:20;21.00;99.90
20141;DHT22;10231;47.702;9.826;2022-08-25T10:11:28;21.10;99.90
20141;DHT22;10231;47.702;9.826;2022-08-25T10:14:04;21.10;99.90
20141;DHT22;10231;47.702;9.826;2022-08-25T10:16:31;21.20;99.90
20141;DHT22;10231;47.702;9.826;2022-08-25T10:21:32;21.50;99.90
20141;DHT22;10231;47.702;9.826;2022-08-25T10:23:58;21.50;99.90
20141;DHT22;10231;47.702;9.826;2022-08-25T10:29:28;21.60;99.90
20141;DHT22;10231;47.702;9.826;2022-08-25T10:32:17;21.60;99.90
20141;DHT22;10231;47.702;9.826;2022-08-25T10:34:53;21.70;99.90
20141;DHT22;10231;47.702;9.826;2022-08-25T10:37:46;21.70;99.90
20141;DHT22;10231;47.702;9.826;2022-08-25T10:45:48;22.00;99.90
20141;DHT22;10231;47.702;9.826;2022-08-25T10:51:31;22.10;99.90
20141;DHT22;10231;47.702;9.826;2022-08-25T10:56:50;22.20;99.90
20141;DHT22;10231;47.702;9.826;2022-08-25T11:07:30;22.40;99.90
20141;DHT22;10231;47.702;9.826;2022-08-25T11:12:33;22.50;99.90
20141;DHT22;10231;47.702;9.826;2022-08-25T11:15:12;22.60;99.90
20141;DHT22;10231;47.702;9.826;2022-08-25T11:20:20;22.70;99.90
20141;DHT22;10231;47.702;9.826;2022-08-25T11:23:09;22.70;99.90
20141;DHT22;10231;47.702;9.826;2022-08-25T11:25:41;22.70;99.90
20141;DHT22;10231;47.702;9.826;2022-08-25T11:28:31;22.70;99.90
20141;DHT22;10231;47.702;9.826;2022-08-25T11:31:00;22.70;99.90
20141;DHT22;10231;47.702;9.826;2022-08-25T11:33:28;22.70;99.90
20141;DHT22;10231;47.702;9.826;2022-08-25T11:36:42;22.70;99.90
20141;DHT22;10231;47.702;9.826;2022-08-25T11:44:32;22.90;99.90
20141;DHT22;10231;47.702;9.826;2022-08-25T11:50:23;23.10;99.90
20141;DHT22;10231;47.702;9.826;2022-08-25T11:53:28;23.20;99.90
20141;DHT22;10231;47.702;9.826;2022-08-25T11:55:49;23.20;99.90
20141;DHT22;10231;47.702;9.826;2022-08-25T12:01:05;23.30;99.90
20141;DHT22;10231;47.702;9.826;2022-08-25T12:06:23;23.50;99.90
20141;DHT22;10231;47.702;9.826;2022-08-25T12:11:51;23.50;99.90
20141;DHT22;10231;47.702;9.826;2022-08-25T12:30:07;24.00;99.90
20141;DHT22;10231;47.702;9.826;2022-08-25T12:45:46;24.50;99.90
20141;DHT22;10231;47.702;9.826;2022-08-25T12:51:05;24.70;99.90
20141;DHT22;10231;47.702;9.826;2022-08-25T12:53:38;24.70;99.90
20141;DHT22;10231;47.702;9.826;2022-08-25T12:56:33;24.80;99.90
20141;DHT22;10231;47.702;9.826;2022-08-25T12:59:19;24.90;99.40
20141;DHT22;10231;47.702;9.826;2022-08-25T13:02:03;25.10;99.90
20141;DHT22;10231;47.702;9.826;2022-08-25T13:05:02;25.20;99.80
20141;DHT22;10231;47.702;9.826;2022-08-25T13:15:41;25.30;99.90
20141;DHT22;10231;47.702;9.826;2022-08-25T13:18:28;25.40;99.90
20141;DHT22;10231;47.702;9.826;2022-08-25T13:21:07;25.50;99.90
20141;DHT22;10231;47.702;9.826;2022-08-25T13:23:41;25.70;99.90
20141;DHT22;10231;47.702;9.826;2022-08-25T13:26:07;25.80;99.90
20141;DHT22;10231;47.702;9.826;2022-08-25T13:28:36;25.80;99.20
20141;DHT22;10231;47.702;9.826;2022-08-25T13:31:19;25.90;99.10
20141;DHT22;10231;47.702;9.826;2022-08-25T13:34:00;26.00;99.90
20141;DHT22;10231;47.702;9.826;2022-08-25T13:36:33;26.10;99.60
20141;DHT22;10231;47.702;9.826;2022-08-25T13:39:21;26.20;99.90
20141;DHT22;10231;47.702;9.826;2022-08-25T13:41:51;26.20;99.80
20141;DHT22;10231;47.702;9.826;2022-08-25T13:44:18;26.30;99.70
20141;DHT22;10231;47.702;9.826;2022-08-25T13:46:45;26.50;99.30
20141;DHT22;10231;47.702;9.826;2022-08-25T13:49:23;26.50;98.70
20141;DHT22;10231;47.702;9.826;2022-08-25T13:51:54;26.60;99.00
20141;DHT22;10231;47.702;9.826;2022-08-25T13:54:33;26.70;99.10
20141;DHT22;10231;47.702;9.826;2022-08-25T13:57:12;26.70;98.70
20141;DHT22;10231;47.702;9.826;2022-08-25T13:59:40;26.70;98.40
20141;DHT22;10231;47.702;9.826;2022-08-25T14:02:09;26.80;98.40
20141;DHT22;10231;47.702;9.826;2022-08-25T14:09:49;26.90;98.50
20141;DHT22;10231;47.702;9.826;2022-08-25T14:12:44;27.10;99.20
20141;DHT22;10231;47.702;9.826;2022-08-25T14:15:26;27.20;98.80
20141;DHT22;10231;47.702;9.826;2022-08-25T14:18:28;27.40;98.40
20141;DHT22;10231;47.702;9.826;2022-08-25T14:20:55;27.50;96.20
20141;DHT22;10231;47.702;9.826;2022-08-25T14:23:27;27.60;97.10
20141;DHT22;10231;47.702;9.826;2022-08-25T14:25:55;27.60;96.00
20141;DHT22;10231;47.702;9.826;2022-08-25T14:28:28;27.70;95.60
20141;DHT22;10231;47.702;9.826;2022-08-25T14:31:04;27.80;96.40
20141;DHT22;10231;47.702;9.826;2022-08-25T14:34:21;27.90;95.00
20141;DHT22;10231;47.702;9.826;2022-08-25T14:36:20;28.10;96.00
20141;DHT22;10231;47.702;9.826;2022-08-25T14:38:46;28.20;96.60
20141;DHT22;10231;47.702;9.826;2022-08-25T14:41:12;28.30;94.20
20141;DHT22;10231;47.702;9.826;2022-08-25T14:43:37;28.40;94.70
20141;DHT22;10231;47.702;9.826;2022-08-25T14:46:09;28.40;93.40
20141;DHT22;10231;47.702;9.826;2022-08-25T14:48:40;28.50;93.80
20141;DHT22;10231;47.702;9.826;2022-08-25T14:51:07;28.60;93.50
20141;DHT22;10231;47.702;9.826;2022-08-25T14:53:34;28.90;92.60
20141;DHT22;10231;47.702;9.826;2022-08-25T14:55:59;28.80;92.30
20141;DHT22;10231;47.702;9.826;2022-08-25T14:58:26;28.80;91.80
20141;DHT22;10231;47.702;9.826;2022-08-25T15:00:52;28.90;91.30
20141;DHT22;10231;47.702;9.826;2022-08-25T15:03:32;28.90;91.20
20141;DHT22;10231;47.702;9.826;2022-08-25T15:05:59;29.10;92.10
20141;DHT22;10231;47.702;9.826;2022-08-25T15:08:25;29.10;91.20
20141;DHT22;10231;47.702;9.826;2022-08-25T15:11:09;29.10;90.70
20141;DHT22;10231;47.702;9.826;2022-08-25T15:13:35;29.20;91.10
20141;DHT22;10231;47.702;9.826;2022-08-25T15:16:01;29.20;90.50
20141;DHT22;10231;47.702;9.826;2022-08-25T15:18:27;29.30;90.00
20141;DHT22;10231;47.702;9.826;2022-08-25T15:20:52;29.50;90.90
20141;DHT22;10231;47.702;9.826;2022-08-25T15:23:18;29.70;89.30
20141;DHT22;10231;47.702;9.826;2022-08-25T15:25:46;29.80;83.60
20141;DHT22;10231;47.702;9.826;2022-08-25T15:28:13;29.90;84.40
20141;DHT22;10231;47.702;9.826;2022-08-25T15:30:40;30.10;84.50
20141;DHT22;10231;47.702;9.826;2022-08-25T15:33:05;30.20;80.10
20141;DHT22;10231;47.702;9.826;2022-08-25T15:35:32;30.40;82.80
20141;DHT22;10231;47.702;9.826;2022-08-25T15:37:58;30.60;79.40
20141;DHT22;10231;47.702;9.826;2022-08-25T15:40:24;30.80;79.40
20141;DHT22;10231;47.702;9.826;2022-08-25T15:42:50;30.90;78.10
20141;DHT22;10231;47.702;9.826;2022-08-25T15:45:16;30.90;80.10
20141;DHT22;10231;47.702;9.826;2022-08-25T15:47:41;31.10;79.00
20141;DHT22;10231;47.702;9.826;2022-08-25T15:50:14;31.20;74.70
20141;DHT22;10231;47.702;9.826;2022-08-25T15:52:41;31.30;75.70
20141;DHT22;10231;47.702;9.826;2022-08-25T15:55:08;31.30;72.60
20141;DHT22;10231;47.702;9.826;2022-08-25T15:57:34;31.30;75.30
20141;DHT22;10231;47.702;9.826;2022-08-25T16:00:03;31.40;78.10
20141;DHT22;10231;47.702;9.826;2022-08-25T16:02:29;31.50;74.90
20141;DHT22;10231;47.702;9.826;2022-08-25T16:04:56;31.80;72.30
20141;DHT22;10231;47.702;9.826;2022-08-25T16:07:22;32.50;69.50
20141;DHT22;10231;47.702;9.826;2022-08-25T16:09:48;33.50;71.30
20141;DHT22;10231;47.702;9.826;2022-08-25T16:12:13;34.30;64.80
20141;DHT22;10231;47.702;9.826;2022-08-25T16:14:39;35.00;62.30
20141;DHT22;10231;47.702;9.826;2022-08-25T16:17:05;35.50;58.70
20141;DHT22;10231;47.702;9.826;2022-08-25T16:19:31;35.20;60.10
20141;DHT22;10231;47.702;9.826;2022-08-25T16:21:57;35.00;59.20
20141;DHT22;10231;47.702;9.826;2022-08-25T16:24:23;34.40;59.40
20141;DHT22;10231;47.702;9.826;2022-08-25T16:26:50;33.50;60.70
20141;DHT22;10231;47.702;9.826;2022-08-25T16:29:17;32.70;61.50
20141;DHT22;10231;47.702;9.826;2022-08-25T16:31:44;31.90;68.00
20141;DHT22;10231;47.702;9.826;2022-08-25T16:34:10;31.40;68.70
20141;DHT22;10231;47.702;9.826;2022-08-25T16:36:37;31.00;68.20
20141;DHT22;10231;47.702;9.826;2022-08-25T16:39:03;30.60;67.80
20141;DHT22;10231;47.702;9.826;2022-08-25T16:41:30;30.20;69.20
20141;DHT22;10231;47.702;9.826;2022-08-25T16:44:04;29.90;70.20
20141;DHT22;10231;47.702;9.826;2022-08-25T16:46:32;29.60;68.80
20141;DHT22;10231;47.702;9.826;2022-08-25T16:49:04;29.30;69.60
20141;DHT22;10231;47.702;9.826;2022-08-25T16:51:30;29.10;69.60
20141;DHT22;10231;47.702;9.826;2022-08-25T16:53:56;28.90;72.50
20141;DHT22;10231;47.702;9.826;2022-08-25T16:56:41;28.70;70.90
20141;DHT22;10231;47.702;9.826;2022-08-25T16:59:09;28.40;71.30
20141;DHT22;10231;47.702;9.826;2022-08-25T17:01:35;28.20;71.70
20141;DHT22;10231;47.702;9.826;2022-08-25T17:04:02;27.90;74.40
20141;DHT22;10231;47.702;9.826;2022-08-25T17:06:29;27.70;78.20
20141;DHT22;10231;47.702;9.826;2022-08-25T17:08:57;27.50;75.90
20141;DHT22;10231;47.702;9.826;2022-08-25T17:11:25;27.50;74.00
20141;DHT22;10231;47.702;9.826;2022-08-25T17:13:54;27.30;74.10
20141;DHT22;10231;47.702;9.826;2022-08-25T17:16:22;27.10;74.00
20141;DHT22;10231;47.702;9.826;2022-08-25T17:18:52;27.00;76.00
20141;DHT22;10231;47.702;9.826;2022-08-25T17:21:18;26.90;75.30
20141;DHT22;10231;47.702;9.826;2022-08-25T17:23:45;26.80;74.40
20141;DHT22;10231;47.702;9.826;2022-08-25T17:26:14;26.70;77.20
20141;DHT22;10231;47.702;9.826;2022-08-25T17:28:40;26.60;79.00
20141;DHT22;10231;47.702;9.826;2022-08-25T17:31:11;26.50;78.60
20141;DHT22;10231;47.702;9.826;2022-08-25T17:33:37;26.40;79.60
20141;DHT22;10231;47.702;9.826;2022-08-25T17:36:03;26.40;81.00
20141;DHT22;10231;47.702;9.826;2022-08-25T17:38:30;26.30;80.40
20141;DHT22;10231;47.702;9.826;2022-08-25T17:40:58;26.30;80.50
20141;DHT22;10231;47.702;9.826;2022-08-25T17:43:25;26.20;82.10
20141;DHT22;10231;47.702;9.826;2022-08-25T17:45:52;26.00;82.90
20141;DHT22;10231;47.702;9.826;2022-08-25T17:48:18;25.90;86.40